createdAt,value
2018-05-23T00:00:13.831Z,16.89
2018-05-23T00:01:13.755Z,16.91
2018-05-23T00:02:13.693Z,16.88
2018-05-23T00:03:13.594Z,16.89
2018-05-23T00:04:13.525Z,16.76
2018-05-23T00:05:13.444Z,16.91
2018-05-23T00:06:13.369Z,16.85
2018-05-23T00:07:13.282Z,16.86
2018-05-23T00:08:13.206Z,16.81
2018-05-23T00:09:13.135Z,16.76
2018-05-23T00:10:13.044Z,16.79
2018-05-23T00:11:12.970Z,16.85
2018-05-23T00:12:12.895Z,16.81
2018-05-23T00:13:12.812Z,16.75
2018-05-23T00:14:12.732Z,16.88
2018-05-23T00:15:12.657Z,16.78
2018-05-23T00:16:12.583Z,16.81
2018-05-23T00:17:12.495Z,16.82
2018-05-23T00:18:12.426Z,16.88
2018-05-23T00:19:12.345Z,16.82
2018-05-23T00:20:12.258Z,16.71
2018-05-23T00:21:12.185Z,16.78
2018-05-23T00:22:12.108Z,16.75
2018-05-23T00:23:12.024Z,16.71
2018-05-23T00:24:11.946Z,16.70
2018-05-23T00:25:11.872Z,16.73
2018-05-23T00:26:11.796Z,16.70
2018-05-23T00:27:11.708Z,16.70
2018-05-23T00:28:11.634Z,16.70
2018-05-23T00:29:11.558Z,16.68
2018-05-23T00:30:11.484Z,16.58
2018-05-23T00:31:11.399Z,16.63
2018-05-23T00:32:11.323Z,16.60
2018-05-23T00:33:11.237Z,16.61
2018-05-23T00:34:11.159Z,16.61
2018-05-23T00:35:11.089Z,16.56
2018-05-23T00:36:10.999Z,16.50
2018-05-23T00:37:10.923Z,16.49
2018-05-23T00:38:10.848Z,16.48
2018-05-23T00:39:10.774Z,16.52
2018-05-23T00:40:10.685Z,16.45
2018-05-23T00:41:10.614Z,16.43
2018-05-23T00:42:10.542Z,16.50
2018-05-23T00:43:10.449Z,16.53
2018-05-23T00:44:10.373Z,16.46
2018-05-23T00:45:10.304Z,16.42
2018-05-23T00:46:10.211Z,16.48
2018-05-23T00:47:10.135Z,16.45
2018-05-23T00:48:10.077Z,16.48
2018-05-23T00:49:09.975Z,16.46
2018-05-23T00:50:09.904Z,16.43
2018-05-23T00:51:09.829Z,16.34
2018-05-23T00:52:09.737Z,16.43
2018-05-23T00:53:09.662Z,16.38
2018-05-23T00:54:09.587Z,16.24
2018-05-23T00:55:09.511Z,16.23
2018-05-23T00:56:09.428Z,16.23
2018-05-23T00:57:09.350Z,16.21
2018-05-23T00:58:09.275Z,16.23
2018-05-23T00:59:09.187Z,16.12
2018-05-23T01:00:09.112Z,16.04
2018-05-23T01:01:09.050Z,16.05
2018-05-23T01:02:08.951Z,16.12
2018-05-23T01:03:08.875Z,16.01
2018-05-23T01:04:08.803Z,16.02
2018-05-23T01:05:08.713Z,16.00
2018-05-23T01:06:08.638Z,15.96
2018-05-23T01:07:08.577Z,15.86
2018-05-23T01:08:08.478Z,15.86
2018-05-23T01:09:08.405Z,15.82
2018-05-23T01:10:08.327Z,15.74
2018-05-23T01:11:08.239Z,15.74
2018-05-23T01:12:08.178Z,15.64
2018-05-23T01:13:08.089Z,15.68
2018-05-23T01:14:08.014Z,15.62
2018-05-23T01:15:07.928Z,15.57
2018-05-23T01:16:07.852Z,15.64
2018-05-23T01:17:07.777Z,15.53
2018-05-23T01:18:07.693Z,15.50
2018-05-23T01:19:07.614Z,15.56
2018-05-23T01:20:07.540Z,15.51
2018-05-23T01:21:07.453Z,15.64
2018-05-23T01:22:07.378Z,15.62
2018-05-23T01:23:07.291Z,15.54
2018-05-23T01:24:07.215Z,15.62
2018-05-23T01:25:07.141Z,15.64
2018-05-23T01:26:07.079Z,15.57
2018-05-23T01:27:06.979Z,15.59
2018-05-23T01:28:06.907Z,15.57
2018-05-23T01:29:06.831Z,15.54
2018-05-23T01:30:06.744Z,15.62
2018-05-23T01:31:06.666Z,15.59
2018-05-23T01:32:06.591Z,15.56
2018-05-23T01:33:06.505Z,15.56
2018-05-23T01:34:06.429Z,15.57
2018-05-23T01:35:06.343Z,15.54
2018-05-23T01:36:06.266Z,15.53
2018-05-23T01:37:06.192Z,15.53
2018-05-23T01:38:06.123Z,15.50
2018-05-23T01:39:06.030Z,15.54
2018-05-23T01:40:05.957Z,15.47
2018-05-23T01:41:05.880Z,15.41
2018-05-23T01:42:05.791Z,15.32
2018-05-23T01:43:05.717Z,15.36
2018-05-23T01:44:05.642Z,15.21
2018-05-23T01:45:05.555Z,15.28
2018-05-23T01:46:05.481Z,15.17
2018-05-23T01:47:05.394Z,15.19
2018-05-23T01:48:05.318Z,15.21
2018-05-23T01:49:05.242Z,15.21
2018-05-23T01:50:05.157Z,15.11
2018-05-23T01:51:05.081Z,15.16
2018-05-23T01:52:05.015Z,15.17
2018-05-23T01:53:04.919Z,15.13
2018-05-23T01:54:04.844Z,15.07
2018-05-23T01:55:04.782Z,15.06
2018-05-23T01:56:04.686Z,15.10
2018-05-23T01:57:04.612Z,15.03
2018-05-23T01:58:04.536Z,15.02
2018-05-23T01:59:04.443Z,14.96
2018-05-23T02:00:04.382Z,14.95
2018-05-23T02:01:04.362Z,14.96
2018-05-23T02:02:04.214Z,14.91
2018-05-23T02:03:04.133Z,14.92
2018-05-23T02:04:04.058Z,14.95
2018-05-23T02:05:03.988Z,14.81
2018-05-23T02:06:03.895Z,14.83
2018-05-23T02:07:03.820Z,14.88
2018-05-23T02:08:03.745Z,14.84
2018-05-23T02:09:03.658Z,14.86
2018-05-23T02:10:03.572Z,14.81
2018-05-23T02:11:03.508Z,14.89
2018-05-23T02:12:03.421Z,14.88
2018-05-23T02:13:03.334Z,14.92
2018-05-23T02:14:03.270Z,14.94
2018-05-23T02:15:03.184Z,14.91
2018-05-23T02:16:03.108Z,14.88
2018-05-23T02:17:03.024Z,14.95
2018-05-23T02:18:02.946Z,14.92
2018-05-23T02:19:02.859Z,14.91
2018-05-23T02:20:02.785Z,14.86
2018-05-23T02:21:02.709Z,14.94
2018-05-23T02:22:02.621Z,14.92
2018-05-23T02:23:02.546Z,15.02
2018-05-23T02:24:02.460Z,14.92
2018-05-23T02:25:02.384Z,14.91
2018-05-23T02:26:02.311Z,14.98
2018-05-23T02:27:02.221Z,14.95
2018-05-23T02:28:02.147Z,15.01
2018-05-23T02:29:02.074Z,14.99
2018-05-23T02:30:01.993Z,14.96
2018-05-23T02:31:01.911Z,15.01
2018-05-23T02:32:01.837Z,15.01
2018-05-23T02:33:01.761Z,15.07
2018-05-23T02:34:01.672Z,14.94
2018-05-23T02:35:01.588Z,14.94
2018-05-23T02:36:01.511Z,14.95
2018-05-23T02:37:01.436Z,15.03
2018-05-23T02:38:01.350Z,15.06
2018-05-23T02:39:01.273Z,15.02
2018-05-23T02:40:01.213Z,15.01
2018-05-23T02:41:01.111Z,14.95
2018-05-23T02:42:01.037Z,15.02
2018-05-23T02:43:00.962Z,15.02
2018-05-23T02:44:00.873Z,15.01
2018-05-23T02:45:00.803Z,14.91
2018-05-23T02:46:00.728Z,14.88
2018-05-23T02:47:00.678Z,14.86
2018-05-23T02:48:00.562Z,14.92
2018-05-23T02:49:00.474Z,14.91
2018-05-23T02:50:00.399Z,14.86
2018-05-23T02:51:00.324Z,14.91
2018-05-23T02:52:00.239Z,14.84
2018-05-23T02:53:00.162Z,14.81
2018-05-23T02:54:00.089Z,14.84
2018-05-23T02:55:00.000Z,14.78
2018-05-23T02:55:59.930Z,14.80
2018-05-23T02:56:59.850Z,14.77
2018-05-23T02:58:41.889Z,14.77
2018-05-23T02:59:41.800Z,14.75
2018-05-23T03:00:41.726Z,14.73
2018-05-23T03:01:41.651Z,14.77
2018-05-23T03:02:41.563Z,14.72
2018-05-23T03:03:41.489Z,14.77
2018-05-23T03:04:41.402Z,14.61
2018-05-23T03:05:41.331Z,14.69
2018-05-23T03:06:41.250Z,14.65
2018-05-23T03:07:41.164Z,14.62
2018-05-23T03:08:41.098Z,14.68
2018-05-23T03:09:41.014Z,14.69
2018-05-23T03:10:40.926Z,14.70
2018-05-23T03:11:40.856Z,14.62
2018-05-23T03:12:40.777Z,14.70
2018-05-23T03:13:40.693Z,14.69
2018-05-23T03:14:40.615Z,14.69
2018-05-23T03:15:40.527Z,14.62
2018-05-23T03:16:40.452Z,14.65
2018-05-23T03:17:40.378Z,14.64
2018-05-23T03:18:40.290Z,14.68
2018-05-23T03:19:40.215Z,14.69
2018-05-23T03:20:40.141Z,14.70
2018-05-23T03:21:40.052Z,14.64
2018-05-23T03:22:39.977Z,14.65
2018-05-23T03:23:39.891Z,14.64
2018-05-23T03:24:39.816Z,14.68
2018-05-23T03:25:39.741Z,14.70
2018-05-23T03:26:39.660Z,14.68
2018-05-23T03:27:39.578Z,14.64
2018-05-23T03:28:39.506Z,14.62
2018-05-23T03:29:39.417Z,14.65
2018-05-23T03:30:39.341Z,14.68
2018-05-23T03:31:39.255Z,14.64
2018-05-23T03:32:39.183Z,14.61
2018-05-23T03:33:39.104Z,14.60
2018-05-23T03:34:39.019Z,14.62
2018-05-23T03:35:38.942Z,14.69
2018-05-23T03:36:38.870Z,14.65
2018-05-23T03:37:38.779Z,14.57
2018-05-23T03:38:38.709Z,14.65
2018-05-23T03:39:38.619Z,14.61
2018-05-23T03:40:38.544Z,14.70
2018-05-23T03:41:38.533Z,14.65
2018-05-23T03:42:38.381Z,14.65
2018-05-23T03:43:38.305Z,14.62
2018-05-23T03:44:38.230Z,14.64
2018-05-23T03:45:38.144Z,14.64
2018-05-23T03:46:38.070Z,14.64
2018-05-23T03:47:37.983Z,14.61
2018-05-23T03:48:37.906Z,14.68
2018-05-23T03:49:37.832Z,14.65
2018-05-23T03:50:37.745Z,14.64
2018-05-23T03:51:37.671Z,14.69
2018-05-23T03:52:37.595Z,14.64
2018-05-23T03:53:37.506Z,14.68
2018-05-23T03:54:37.432Z,14.52
2018-05-23T03:55:37.356Z,14.64
2018-05-23T03:56:37.271Z,14.61
2018-05-23T03:57:37.195Z,14.65
2018-05-23T03:58:37.119Z,14.68
2018-05-23T03:59:37.045Z,14.65
2018-05-23T04:00:37.035Z,14.65
2018-05-23T04:01:36.870Z,14.77
2018-05-23T04:02:36.795Z,14.80
2018-05-23T04:03:36.720Z,14.83
2018-05-23T04:04:36.633Z,14.78
2018-05-23T04:05:36.557Z,14.83
2018-05-23T04:06:36.482Z,14.78
2018-05-23T04:07:36.395Z,14.84
2018-05-23T04:08:36.321Z,14.80
2018-05-23T04:09:36.326Z,14.83
2018-05-23T04:10:36.161Z,14.88
2018-05-23T04:11:36.093Z,14.83
2018-05-23T04:12:35.996Z,14.86
2018-05-23T04:13:35.921Z,14.86
2018-05-23T04:14:35.847Z,14.94
2018-05-23T04:15:35.758Z,14.89
2018-05-23T04:16:35.684Z,14.89
2018-05-23T04:17:35.608Z,14.98
2018-05-23T04:18:35.521Z,14.96
2018-05-23T04:19:35.447Z,14.95
2018-05-23T04:20:35.359Z,14.95
2018-05-23T04:21:35.289Z,15.06
2018-05-23T04:22:35.209Z,15.03
2018-05-23T04:23:35.123Z,14.99
2018-05-23T04:24:35.048Z,15.02
2018-05-23T04:25:34.973Z,15.11
2018-05-23T04:26:34.885Z,15.16
2018-05-23T04:27:34.810Z,15.21
2018-05-23T04:28:34.735Z,15.25
2018-05-23T04:29:34.648Z,15.41
2018-05-23T04:30:34.573Z,15.59
2018-05-23T04:31:34.503Z,15.71
2018-05-23T04:32:34.411Z,15.80
2018-05-23T04:33:34.337Z,16.05
2018-05-23T04:34:34.255Z,16.41
2018-05-23T04:35:34.174Z,16.73
2018-05-23T04:36:34.103Z,17.04
2018-05-23T04:37:34.024Z,17.30
2018-05-23T04:38:33.937Z,17.62
2018-05-23T04:39:33.861Z,17.95
2018-05-23T04:40:33.775Z,18.02
2018-05-23T04:41:33.699Z,18.03
2018-05-23T04:42:33.626Z,18.17
2018-05-23T04:43:33.538Z,18.25
2018-05-23T04:44:33.462Z,18.27
2018-05-23T04:45:33.390Z,18.33
2018-05-23T04:46:33.313Z,18.32
2018-05-23T04:47:33.225Z,18.44
2018-05-23T04:48:33.151Z,18.32
2018-05-23T04:49:33.075Z,18.29
2018-05-23T04:50:32.993Z,18.25
2018-05-23T04:51:32.914Z,18.07
2018-05-23T04:52:32.852Z,18.08
2018-05-23T04:53:32.763Z,18.10
2018-05-23T04:54:32.678Z,18.00
2018-05-23T04:55:32.601Z,17.58
2018-05-23T04:56:32.526Z,17.56
2018-05-23T04:57:32.452Z,17.41
2018-05-23T04:58:32.366Z,17.49
2018-05-23T04:59:32.289Z,17.38
2018-05-23T05:00:32.214Z,17.41
2018-05-23T05:01:32.127Z,17.40
2018-05-23T05:02:32.053Z,17.52
2018-05-23T05:03:31.978Z,17.31
2018-05-23T05:04:31.903Z,17.48
2018-05-23T05:05:31.822Z,17.41
2018-05-23T05:06:31.740Z,17.44
2018-05-23T05:07:31.664Z,17.30
2018-05-23T05:08:31.605Z,17.28
2018-05-23T05:09:31.503Z,17.36
2018-05-23T05:10:31.432Z,17.30
2018-05-23T05:11:31.353Z,17.38
2018-05-23T05:12:31.278Z,17.46
2018-05-23T05:13:31.191Z,17.54
2018-05-23T05:14:31.116Z,17.58
2018-05-23T05:15:31.054Z,17.63
2018-05-23T05:16:30.955Z,17.70
2018-05-23T05:17:30.882Z,17.62
2018-05-23T05:18:30.805Z,17.54
2018-05-23T05:19:30.730Z,17.58
2018-05-23T05:20:30.642Z,17.70
2018-05-23T05:21:30.566Z,17.55
2018-05-23T05:22:30.491Z,17.70
2018-05-23T05:23:30.417Z,17.74
2018-05-23T05:24:30.334Z,17.78
2018-05-23T05:25:30.255Z,17.77
2018-05-23T05:26:30.180Z,17.77
2018-05-23T05:27:30.094Z,17.82
2018-05-23T05:28:30.017Z,17.81
2018-05-23T05:29:29.942Z,17.77
2018-05-23T05:30:29.867Z,17.75
2018-05-23T05:31:29.782Z,17.82
2018-05-23T05:32:29.705Z,17.86
2018-05-23T05:33:29.633Z,17.77
2018-05-23T05:34:29.560Z,17.89
2018-05-23T05:35:29.468Z,17.84
2018-05-23T05:36:29.394Z,17.90
2018-05-23T05:37:29.319Z,17.92
2018-05-23T05:38:29.243Z,17.97
2018-05-23T05:39:29.156Z,17.96
2018-05-23T05:40:29.085Z,18.02
2018-05-23T05:41:29.006Z,17.93
2018-05-23T05:42:28.936Z,18.10
2018-05-23T05:43:28.844Z,18.12
2018-05-23T05:44:28.769Z,17.95
2018-05-23T05:45:28.707Z,17.99
2018-05-23T05:46:28.622Z,18.10
2018-05-23T05:47:28.539Z,18.21
2018-05-23T05:48:28.457Z,18.23
2018-05-23T05:49:28.387Z,18.30
2018-05-23T05:50:28.307Z,18.25
2018-05-23T05:51:28.219Z,18.20
2018-05-23T05:52:28.144Z,18.29
2018-05-23T05:53:28.069Z,18.30
2018-05-23T05:54:28.010Z,18.39
2018-05-23T05:55:27.908Z,18.36
2018-05-23T05:56:27.839Z,18.50
2018-05-23T05:57:27.758Z,18.52
2018-05-23T05:58:27.683Z,18.48
2018-05-23T05:59:27.609Z,18.51
2018-05-23T06:00:27.525Z,18.60
2018-05-23T06:01:27.446Z,18.65
2018-05-23T06:02:27.373Z,18.67
2018-05-23T06:03:27.284Z,18.57
2018-05-23T06:04:27.208Z,18.62
2018-05-23T06:05:27.139Z,18.50
2018-05-23T06:06:27.062Z,18.69
2018-05-23T06:07:26.972Z,18.80
2018-05-23T06:08:26.910Z,18.70
2018-05-23T06:09:26.896Z,18.73
2018-05-23T06:10:26.746Z,18.76
2018-05-23T06:11:26.672Z,18.81
2018-05-23T06:12:26.585Z,18.78
2018-05-23T06:13:26.510Z,18.70
2018-05-23T06:14:26.444Z,18.66
2018-05-23T06:15:26.364Z,18.82
2018-05-23T06:16:26.273Z,18.76
2018-05-23T06:17:26.197Z,18.84
2018-05-23T06:18:26.123Z,18.90
2018-05-23T06:19:26.047Z,18.94
2018-05-23T06:20:25.974Z,19.06
2018-05-23T06:21:25.886Z,19.06
2018-05-23T06:22:25.846Z,19.08
2018-05-23T06:23:25.736Z,19.11
2018-05-23T06:24:25.662Z,19.23
2018-05-23T06:25:25.574Z,19.22
2018-05-23T06:26:25.498Z,19.39
2018-05-23T06:27:25.425Z,19.37
2018-05-23T06:28:25.348Z,19.32
2018-05-23T06:29:25.273Z,19.44
2018-05-23T06:30:25.258Z,19.41
2018-05-23T06:31:25.113Z,19.50
2018-05-23T06:32:25.038Z,19.56
2018-05-23T06:33:24.963Z,19.68
2018-05-23T06:34:24.887Z,19.69
2018-05-23T06:35:24.813Z,19.77
2018-05-23T06:36:24.725Z,19.77
2018-05-23T06:37:24.649Z,19.81
2018-05-23T06:38:24.579Z,19.78
2018-05-23T06:39:24.513Z,19.78
2018-05-23T06:40:24.427Z,19.84
2018-05-23T06:41:24.339Z,19.80
2018-05-23T06:42:24.264Z,19.88
2018-05-23T06:43:24.201Z,19.95
2018-05-23T06:44:24.113Z,20.01
2018-05-23T06:45:24.039Z,20.05
2018-05-23T06:46:23.964Z,20.06
2018-05-23T06:47:23.880Z,20.05
2018-05-23T06:48:23.800Z,20.10
2018-05-23T06:49:23.740Z,20.14
2018-05-23T06:50:23.652Z,20.31
2018-05-23T06:51:23.577Z,20.23
2018-05-23T06:52:23.501Z,20.28
2018-05-23T06:53:23.478Z,20.29
2018-05-23T06:54:23.340Z,20.28
2018-05-23T06:55:23.265Z,20.47
2018-05-23T06:56:23.193Z,20.52
2018-05-23T06:57:23.116Z,20.57
2018-05-23T06:58:23.047Z,20.55
2018-05-23T06:59:22.953Z,20.67
2018-05-23T07:00:22.877Z,20.64
2018-05-23T07:01:22.802Z,20.73
2018-05-23T07:02:22.732Z,20.82
2018-05-23T07:03:22.652Z,20.97
2018-05-23T07:04:22.578Z,20.87
2018-05-23T07:05:22.502Z,20.99
2018-05-23T07:06:22.428Z,21.13
2018-05-23T07:07:22.341Z,21.29
2018-05-23T07:08:22.267Z,21.40
2018-05-23T07:09:22.191Z,21.50
2018-05-23T07:10:22.120Z,21.54
2018-05-23T07:11:22.041Z,21.53
2018-05-23T07:12:21.966Z,21.34
2018-05-23T07:13:21.891Z,21.37
2018-05-23T07:14:21.826Z,21.37
2018-05-23T07:15:21.742Z,21.44
2018-05-23T07:16:21.656Z,21.58
2018-05-23T07:17:21.580Z,21.74
2018-05-23T07:18:21.505Z,21.77
2018-05-23T07:19:21.431Z,21.96
2018-05-23T07:20:21.355Z,22.15
2018-05-23T07:21:21.279Z,22.15
2018-05-23T07:22:21.204Z,22.33
2018-05-23T07:23:21.130Z,22.37
2018-05-23T07:24:21.055Z,22.64
2018-05-23T07:25:20.980Z,22.86
2018-05-23T07:26:20.905Z,23.07
2018-05-23T07:27:20.840Z,23.69
2018-05-23T07:28:20.755Z,24.20
2018-05-23T07:29:20.681Z,24.55
2018-05-23T07:30:20.605Z,24.64
2018-05-23T07:31:20.533Z,25.18
2018-05-23T07:32:20.455Z,25.28
2018-05-23T07:33:20.381Z,25.45
2018-05-23T07:34:20.306Z,25.83
2018-05-23T07:35:20.231Z,25.45
2018-05-23T07:36:20.158Z,25.64
2018-05-23T07:37:20.095Z,25.67
2018-05-23T07:38:20.104Z,25.65
2018-05-23T07:39:19.945Z,25.91
2018-05-23T07:40:19.869Z,26.25
2018-05-23T07:41:19.807Z,26.54
2018-05-23T07:42:19.732Z,26.39
2018-05-23T07:43:19.660Z,26.58
2018-05-23T07:44:19.595Z,26.73
2018-05-23T07:45:19.521Z,25.94
2018-05-23T07:46:19.445Z,25.87
2018-05-23T07:47:19.382Z,25.27
2018-05-23T07:48:19.307Z,24.95
2018-05-23T07:49:19.245Z,24.76
2018-05-23T07:50:19.171Z,25.45
2018-05-23T07:51:19.097Z,26.13
2018-05-23T07:52:19.033Z,26.39
2018-05-23T07:53:18.958Z,26.51
2018-05-23T07:54:18.896Z,26.20
2018-05-23T07:55:18.825Z,26.26
2018-05-23T07:56:18.758Z,26.36
2018-05-23T07:57:18.685Z,26.73
2018-05-23T07:58:18.623Z,26.51
2018-05-23T07:59:18.547Z,26.66
2018-05-23T08:00:18.496Z,26.43
2018-05-23T08:01:18.421Z,26.57
2018-05-23T08:02:18.347Z,26.73
2018-05-23T08:03:18.272Z,27.12
2018-05-23T08:04:18.209Z,26.77
2018-05-23T08:05:18.136Z,26.82
2018-05-23T08:06:18.073Z,26.73
2018-05-23T08:07:18.009Z,26.47
2018-05-23T08:08:17.934Z,26.89
2018-05-23T08:09:17.873Z,26.10
2018-05-23T08:10:17.804Z,26.09
2018-05-23T08:11:17.735Z,26.10
2018-05-23T08:12:17.673Z,25.79
2018-05-23T08:13:17.598Z,25.76
2018-05-23T08:14:17.535Z,25.67
2018-05-23T08:15:17.473Z,25.80
2018-05-23T08:16:17.398Z,26.58
2018-05-23T08:17:17.336Z,26.18
2018-05-23T08:18:17.262Z,26.67
2018-05-23T08:19:17.199Z,26.72
2018-05-23T08:20:17.136Z,27.12
2018-05-23T08:21:17.062Z,27.22
2018-05-23T08:22:17.000Z,27.41
2018-05-23T08:23:16.936Z,27.63
2018-05-23T08:24:16.936Z,27.72
2018-05-23T08:25:16.800Z,27.40
2018-05-23T08:26:16.736Z,27.24
2018-05-23T08:27:16.670Z,27.28
2018-05-23T08:28:16.600Z,27.18
2018-05-23T08:29:16.537Z,27.17
2018-05-23T08:30:16.477Z,27.49
2018-05-23T08:31:16.401Z,27.85
2018-05-23T08:32:16.337Z,27.88
2018-05-23T08:33:16.277Z,28.19
2018-05-23T08:34:16.213Z,27.93
2018-05-23T08:35:16.139Z,27.31
2018-05-23T08:36:16.079Z,27.62
2018-05-23T08:37:16.014Z,27.75
2018-05-23T08:38:15.940Z,27.82
2018-05-23T08:39:15.889Z,27.65
2018-05-23T08:40:15.836Z,27.07
2018-05-23T08:41:15.756Z,27.13
2018-05-23T08:42:15.688Z,27.21
2018-05-23T08:43:15.626Z,27.67
2018-05-23T08:44:15.552Z,27.25
2018-05-23T08:45:15.488Z,26.80
2018-05-23T08:46:15.429Z,27.14
2018-05-23T08:47:15.353Z,27.41
2018-05-23T08:48:15.293Z,27.92
2018-05-23T08:49:15.227Z,27.72
2018-05-23T08:50:15.165Z,26.87
2018-05-23T08:51:15.106Z,27.36
2018-05-23T08:52:15.028Z,27.17
2018-05-23T08:53:14.978Z,26.84
2018-05-23T08:54:14.912Z,26.97
2018-05-23T08:55:14.839Z,27.46
2018-05-23T08:56:14.778Z,27.77
2018-05-23T08:57:14.706Z,27.36
2018-05-23T08:58:14.640Z,27.77
2018-05-23T08:59:14.579Z,27.49
2018-05-23T09:00:14.515Z,27.51
2018-05-23T09:01:14.453Z,27.09
2018-05-23T09:02:14.379Z,27.34
2018-05-23T09:03:14.318Z,27.94
2018-05-23T09:04:14.253Z,28.40
2018-05-23T09:05:14.194Z,28.48
2018-05-23T09:06:14.129Z,28.88
2018-05-23T09:07:14.054Z,28.66
2018-05-23T09:08:13.991Z,28.66
2018-05-23T09:09:13.930Z,28.37
2018-05-23T09:10:13.867Z,28.09
2018-05-23T09:11:13.807Z,28.49
2018-05-23T09:12:13.755Z,28.96
2018-05-23T09:13:13.667Z,29.23
2018-05-23T09:14:13.604Z,29.49
2018-05-23T09:15:13.542Z,29.52
2018-05-23T09:16:13.483Z,28.88
2018-05-23T09:17:13.418Z,29.11
2018-05-23T09:18:13.356Z,29.49
2018-05-23T09:19:13.308Z,29.80
2018-05-23T09:20:13.230Z,29.43
2018-05-23T09:21:13.167Z,29.82
2018-05-23T09:22:13.106Z,29.52
2018-05-23T09:23:13.031Z,29.70
2018-05-23T09:24:12.967Z,29.82
2018-05-23T09:25:12.906Z,30.19
2018-05-23T09:26:12.843Z,29.98
2018-05-23T09:27:12.781Z,29.94
2018-05-23T09:28:12.718Z,30.01
2018-05-23T09:29:12.659Z,29.95
2018-05-23T09:30:12.606Z,29.83
2018-05-23T09:31:12.535Z,29.09
2018-05-23T09:32:12.483Z,28.90
2018-05-23T09:33:12.407Z,29.12
2018-05-23T09:34:12.346Z,29.24
2018-05-23T09:35:12.270Z,29.09
2018-05-23T09:36:12.207Z,29.00
2018-05-23T09:37:12.145Z,28.15
2018-05-23T09:38:12.090Z,28.55
2018-05-23T09:39:12.111Z,28.49
2018-05-23T09:40:11.958Z,27.99
2018-05-23T09:41:11.895Z,27.82
2018-05-23T09:42:11.833Z,27.70
2018-05-23T09:43:11.769Z,27.72
2018-05-23T09:44:11.709Z,27.28
2018-05-23T09:45:11.677Z,27.17
2018-05-23T09:46:11.570Z,27.27
2018-05-23T09:47:11.508Z,26.84
2018-05-23T09:48:11.447Z,27.24
2018-05-23T09:49:11.371Z,26.77
2018-05-23T09:50:11.308Z,26.37
2018-05-23T09:51:11.246Z,26.87
2018-05-23T09:52:11.172Z,27.02
2018-05-23T09:53:11.113Z,27.60
2018-05-23T09:54:11.046Z,27.72
2018-05-23T09:55:11.055Z,27.87
2018-05-23T09:56:10.909Z,27.50
2018-05-23T09:57:10.847Z,26.99
2018-05-23T09:58:10.771Z,26.91
2018-05-23T09:59:10.710Z,27.04
2018-05-23T10:00:10.635Z,27.62
2018-05-23T10:01:10.573Z,27.17
2018-05-23T10:02:10.497Z,27.09
2018-05-23T10:03:10.434Z,26.75
2018-05-23T10:04:10.360Z,27.06
2018-05-23T10:05:10.297Z,27.07
2018-05-23T10:06:10.237Z,27.14
2018-05-23T10:07:10.160Z,27.41
2018-05-23T10:08:10.097Z,27.88
2018-05-23T10:09:10.024Z,27.70
2018-05-23T10:10:09.961Z,27.88
2018-05-23T10:11:09.886Z,27.97
2018-05-23T10:12:09.823Z,27.70
2018-05-23T10:13:09.750Z,27.36
2018-05-23T10:14:09.687Z,26.72
2018-05-23T10:15:09.613Z,26.47
2018-05-23T10:16:09.548Z,26.36
2018-05-23T10:17:09.475Z,26.44
2018-05-23T10:18:09.412Z,26.50
2018-05-23T10:19:09.337Z,26.63
2018-05-23T10:20:09.274Z,25.95
2018-05-23T10:21:09.199Z,26.06
2018-05-23T10:22:09.137Z,25.99
2018-05-23T10:23:09.064Z,26.05
2018-05-23T10:24:08.999Z,26.30
2018-05-23T10:25:08.937Z,26.36
2018-05-23T10:26:08.867Z,26.09
2018-05-23T10:27:08.788Z,26.29
2018-05-23T10:28:08.714Z,26.23
2018-05-23T10:29:08.653Z,25.99
2018-05-23T10:30:08.576Z,26.25
2018-05-23T10:31:08.514Z,26.09
2018-05-23T10:32:08.439Z,26.20
2018-05-23T10:33:08.373Z,26.40
2018-05-23T10:34:08.300Z,26.57
2018-05-23T10:35:08.240Z,26.67
2018-05-23T10:36:08.169Z,26.75
2018-05-23T10:37:08.093Z,26.87
2018-05-23T10:38:08.015Z,27.25
2018-05-23T10:39:07.998Z,27.60
2018-05-23T10:40:07.882Z,27.92
2018-05-23T10:41:07.815Z,27.90
2018-05-23T10:42:07.743Z,27.75
2018-05-23T10:43:07.670Z,27.29
2018-05-23T10:44:07.602Z,27.29
2018-05-23T10:45:07.616Z,27.51
2018-05-23T10:46:07.542Z,27.99
2018-05-23T10:47:07.402Z,28.27
2018-05-23T10:48:07.341Z,28.46
2018-05-23T10:49:07.272Z,29.42
2018-05-23T10:50:07.191Z,29.76
2018-05-23T10:51:07.142Z,29.83
2018-05-23T10:52:07.163Z,29.98
2018-05-23T10:53:06.992Z,30.51
2018-05-23T10:54:06.930Z,31.19
2018-05-23T10:55:06.867Z,31.28
2018-05-23T10:56:06.792Z,31.41
2018-05-23T10:57:06.782Z,31.41
2018-05-23T10:58:06.667Z,31.95
2018-05-23T10:59:06.604Z,31.65
2018-05-23T11:00:06.619Z,30.69
2018-05-23T11:01:06.472Z,30.95
2018-05-23T11:02:06.404Z,31.19
2018-05-23T11:03:06.342Z,30.69
2018-05-23T11:04:06.280Z,30.75
2018-05-23T11:05:06.218Z,29.90
2018-05-23T11:06:06.155Z,29.18
2018-05-23T11:07:06.093Z,29.73
2018-05-23T11:08:06.020Z,30.51
2018-05-23T11:09:05.985Z,30.69
2018-05-23T11:10:05.897Z,31.26
2018-05-23T11:11:05.848Z,30.77
2018-05-23T11:12:05.775Z,30.97
2018-05-23T11:13:05.705Z,30.61
2018-05-23T11:14:05.646Z,31.31
2018-05-23T11:15:05.610Z,31.20
2018-05-23T11:16:05.519Z,31.35
2018-05-23T11:17:05.457Z,31.50
2018-05-23T11:18:05.395Z,31.88
2018-05-23T11:19:05.332Z,31.14
2018-05-23T11:20:05.270Z,31.16
2018-05-23T11:21:05.207Z,31.47
2018-05-23T11:22:05.150Z,31.28
2018-05-23T11:23:05.081Z,31.47
2018-05-23T11:24:05.021Z,31.20
2018-05-23T11:25:04.963Z,30.98
2018-05-23T11:26:04.911Z,31.26
2018-05-23T11:27:04.833Z,31.31
2018-05-23T11:28:04.782Z,31.29
2018-05-23T11:29:04.720Z,30.97
2018-05-23T11:30:04.659Z,30.82
2018-05-23T11:31:04.599Z,30.70
2018-05-23T11:32:04.536Z,31.41
2018-05-23T11:33:04.471Z,31.54
2018-05-23T11:34:04.407Z,31.29
2018-05-23T11:35:04.346Z,30.80
2018-05-23T11:36:04.283Z,31.10
2018-05-23T11:37:04.221Z,30.73
2018-05-23T11:38:04.171Z,31.06
2018-05-23T11:39:04.100Z,31.19
2018-05-23T11:40:04.033Z,31.53
2018-05-23T11:41:03.971Z,30.55
2018-05-23T11:42:03.908Z,30.32
2018-05-23T11:43:03.849Z,30.91
2018-05-23T11:44:03.789Z,30.94
2018-05-23T11:45:03.734Z,30.20
2018-05-23T11:46:03.673Z,30.77
2018-05-23T11:47:03.610Z,30.69
2018-05-23T11:48:03.547Z,31.09
2018-05-23T11:49:03.485Z,31.19
2018-05-23T11:50:03.423Z,31.01
2018-05-23T11:51:03.361Z,31.17
2018-05-23T11:52:03.298Z,30.84
2018-05-23T11:53:03.235Z,31.50
2018-05-23T11:54:03.174Z,31.61
2018-05-23T11:55:03.110Z,31.75
2018-05-23T11:56:03.048Z,31.69
2018-05-23T11:57:02.989Z,31.54
2018-05-23T11:58:02.935Z,31.29
2018-05-23T11:59:02.875Z,31.50
2018-05-23T12:00:02.810Z,30.80
2018-05-23T12:01:02.749Z,30.47
2018-05-23T12:02:02.686Z,30.32
2018-05-23T12:03:02.624Z,30.64
2018-05-23T12:04:02.560Z,31.35
2018-05-23T12:05:02.500Z,31.85
2018-05-23T12:06:02.436Z,31.76
2018-05-23T12:07:02.376Z,32.11
2018-05-23T12:08:02.312Z,31.80
2018-05-23T12:09:02.250Z,31.66
2018-05-23T12:10:02.192Z,31.80
2018-05-23T12:11:02.137Z,31.85
2018-05-23T12:12:02.074Z,31.65
2018-05-23T12:13:02.013Z,31.70
2018-05-23T12:14:01.953Z,31.17
2018-05-23T12:15:01.888Z,31.06
2018-05-23T12:16:01.826Z,31.04
2018-05-23T12:17:01.763Z,31.61
2018-05-23T12:18:01.701Z,31.75
2018-05-23T12:19:01.638Z,31.85
2018-05-23T12:20:01.575Z,31.34
2018-05-23T12:21:01.514Z,30.98
2018-05-23T12:22:01.464Z,31.32
2018-05-23T12:23:01.402Z,31.02
2018-05-23T12:24:01.339Z,31.23
2018-05-23T12:25:01.277Z,30.80
2018-05-23T12:26:01.217Z,30.99
2018-05-23T12:27:01.153Z,30.51
2018-05-23T12:28:01.091Z,31.09
2018-05-23T12:29:01.027Z,31.09
2018-05-23T12:30:00.984Z,32.01
2018-05-23T12:31:00.915Z,32.18
2018-05-23T12:32:00.851Z,31.28
2018-05-23T12:33:00.779Z,31.84
2018-05-23T12:34:00.716Z,31.62
2018-05-23T12:35:00.654Z,31.91
2018-05-23T12:36:00.612Z,32.43
2018-05-23T12:37:00.553Z,31.73
2018-05-23T12:38:00.485Z,31.56
2018-05-23T12:39:00.415Z,31.89
2018-05-23T12:40:00.353Z,32.43
2018-05-23T12:41:00.308Z,33.04
2018-05-23T12:42:00.229Z,33.66
2018-05-23T12:43:00.172Z,33.51
2018-05-23T12:44:00.115Z,33.29
2018-05-23T12:45:00.054Z,33.06
2018-05-23T12:45:59.980Z,32.70
2018-05-23T12:46:59.918Z,32.94
2018-05-23T12:47:59.866Z,32.69
2018-05-23T12:48:59.805Z,32.30
2018-05-23T12:49:59.741Z,32.06
2018-05-23T12:50:59.680Z,30.43
2018-05-23T12:51:59.616Z,30.65